Time;durP1;ratioP1;P1;durP2;ratioP2;P2;SDS_P1;SDS_P2;PMS_P1;PMS_P2;Temp;Humidity;BMP_temperature;BMP_pressure;BME280_temperature;BME280_humidity;BME280_pressure;Samples;Min_cycle;Max_cycle;Signal;HPM_P1;HPM_P2
2023/12/31 00:03:42;;;;;;;;;;;;;;;10.27;98.31;99201.03;12182230;19;20349;-77
2023/12/31 00:07:44;;;;;;;;;;;;;;;10.10;99.72;99211.31;12203034;19;19911;-76
2023/12/31 00:11:52;;;;;;;;;;;;;;;9.93;100.00;99192.97;12183108;19;19940;-77
2023/12/31 00:15:54;;;;;;;;;;;;;;;9.81;100.00;99186.78;12201206;19;19914;-77
2023/12/31 00:19:56;;;;;;;;;;;;;;;9.66;100.00;99181.16;12199512;19;19918;-76
2023/12/31 00:23:59;;;;;;;;;;;;;;;9.52;100.00;99180.75;12182469;19;19919;-77
2023/12/31 00:28:05;;;;;;;;;;;;;;;9.36;100.00;99174.22;12203878;19;19903;-77
2023/12/31 00:32:07;;;;;;;;;;;;;;;9.24;100.00;99170.78;12205341;19;20014;-77
2023/12/31 00:36:09;;;;;;;;;;;;;;;9.10;100.00;99168.44;12183013;19;19912;-76
2023/12/31 00:40:12;;;;;;;;;;;;;;;9.00;100.00;99154.53;12199145;19;19978;-76
2023/12/31 00:44:14;;;;;;;;;;;;;;;8.96;100.00;99150.66;12201902;19;19914;-77
2023/12/31 00:48:16;;;;;;;;;;;;;;;8.85;100.00;99140.63;12182682;19;20295;-77
2023/12/31 00:52:18;;;;;;;;;;;;;;;8.73;100.00;99129.75;12196110;19;19935;-77
2023/12/31 00:56:19;;;;;;;;;;;;;;;8.61;100.00;99124.38;12196624;19;19921;-77
2023/12/31 01:00:21;;;;;;;;;;;;;;;8.54;100.00;99111.94;12177532;19;20559;-77
2023/12/31 01:04:23;;;;;;;;;;;;;;;8.49;100.00;99109.09;12196474;19;19921;-78
2023/12/31 01:08:26;;;;;;;;;;;;;;;8.44;100.00;99101.63;12193752;19;19940;-78
2023/12/31 01:12:28;;;;;;;;;;;;;;;8.38;100.00;99097.97;12174565;19;19923;-77
2023/12/31 01:16:30;;;;;;;;;;;;;;;8.31;100.00;99083.56;12194993;19;20358;-77
2023/12/31 01:20:32;;;;;;;;;;;;;;;8.27;100.00;99087.06;12194241;19;19919;-77
2023/12/31 01:24:34;;;;;;;;;;;;;;;8.25;100.00;99083.75;12172660;19;20680;-77
2023/12/31 01:28:35;;;;;;;;;;;;;;;8.23;100.00;99079.31;12194931;19;19915;-77
2023/12/31 01:32:37;;;;;;;;;;;;;;;8.26;100.00;99079.91;12193628;19;19919;-77
2023/12/31 01:36:39;;;;;;;;;;;;;;;8.27;100.00;99065.94;12170275;19;20634;-77
2023/12/31 01:40:50;;;;;;;;;;;;;;;8.26;100.00;99063.44;12193659;19;20260;-77
2023/12/31 01:44:52;;;;;;;;;;;;;;;8.21;100.00;99042.28;12172080;19;20031;-77
2023/12/31 01:48:54;;;;;;;;;;;;;;;8.18;100.00;99032.63;12185896;19;19990;-77
2023/12/31 01:52:56;;;;;;;;;;;;;;;8.17;100.00;99017.22;12192338;19;19919;-77
2023/12/31 01:56:58;;;;;;;;;;;;;;;8.19;100.00;99031.53;12169978;19;19919;-77
2023/12/31 02:01:00;;;;;;;;;;;;;;;8.26;100.00;99027.75;12193646;19;19910;-77
2023/12/31 02:05:01;;;;;;;;;;;;;;;8.33;100.00;99022.91;12192591;19;19921;-79
2023/12/31 02:09:03;;;;;;;;;;;;;;;8.40;100.00;99015.38;12169346;19;19910;-78
2023/12/31 02:13:05;;;;;;;;;;;;;;;8.45;100.00;99015.44;12194382;19;19914;-77
2023/12/31 02:17:07;;;;;;;;;;;;;;;8.40;100.00;98986.00;12189649;19;19922;-77
2023/12/31 02:21:10;;;;;;;;;;;;;;;8.28;100.00;98959.72;12168963;19;20595;-78
2023/12/31 02:25:16;;;;;;;;;;;;;;;8.19;100.00;98935.47;12191075;19;19915;-77
2023/12/31 02:29:19;;;;;;;;;;;;;;;8.16;100.00;98935.16;12183694;19;19922;-77
2023/12/31 02:33:20;;;;;;;;;;;;;;;8.16;100.00;98933.25;12157244;19;19928;-77
2023/12/31 02:37:23;;;;;;;;;;;;;;;8.13;100.00;98925.53;12191968;19;19967;-77
2023/12/31 02:41:25;;;;;;;;;;;;;;;8.09;100.00;98920.78;12197043;19;19918;-77
2023/12/31 02:45:27;;;;;;;;;;;;;;;8.08;100.00;98916.41;12187092;19;19982;-77
2023/12/31 02:49:28;;;;;;;;;;;;;;;8.01;100.00;98897.38;12228774;19;19911;-77
2023/12/31 02:53:30;;;;;;;;;;;;;;;8.02;100.00;98873.53;12275454;19;19927;-77
2023/12/31 02:57:32;;;;;;;;;;;;;;;8.01;100.00;98900.13;12247227;19;19911;-77
2023/12/31 03:01:33;;;;;;;;;;;;;;;8.08;100.00;98905.41;12232892;19;19942;-78
2023/12/31 03:05:35;;;;;;;;;;;;;;;8.07;100.00;98898.28;12202862;19;19907;-77
2023/12/31 03:09:37;;;;;;;;;;;;;;;8.13;100.00;98892.59;12175662;19;19921;-78
2023/12/31 03:13:39;;;;;;;;;;;;;;;8.10;100.00;98871.16;12198451;19;21554;-78
2023/12/31 03:17:40;;;;;;;;;;;;;;;8.06;100.00;98864.53;12200058;19;20356;-78
2023/12/31 03:21:45;;;;;;;;;;;;;;;8.00;100.00;98865.53;12186723;19;20768;-77
2023/12/31 03:25:47;;;;;;;;;;;;;;;8.04;100.00;98852.97;12207583;19;20384;-78
2023/12/31 03:29:52;;;;;;;;;;;;;;;8.07;100.00;98843.41;12194337;19;19923;-78
2023/12/31 03:33:58;;;;;;;;;;;;;;;8.13;100.00;98854.19;12192094;19;19931;-79
2023/12/31 03:38:00;;;;;;;;;;;;;;;8.29;100.00;98857.09;12197847;19;20651;-77
2023/12/31 03:42:03;;;;;;;;;;;;;;;8.35;100.00;98845.88;12176324;19;19939;-77
2023/12/31 03:46:06;;;;;;;;;;;;;;;8.30;100.00;98823.03;12198334;19;19923;-77
2023/12/31 03:50:09;;;;;;;;;;;;;;;8.21;100.00;98815.31;12195979;19;19918;-78
2023/12/31 03:54:12;;;;;;;;;;;;;;;8.10;100.00;98812.72;12176628;19;19915;-78
2023/12/31 03:58:13;;;;;;;;;;;;;;;7.94;100.00;98818.03;12200010;19;20355;-78
2023/12/31 04:02:17;;;;;;;;;;;;;;;7.82;100.00;98824.72;12203258;19;19915;-78
2023/12/31 04:06:18;;;;;;;;;;;;;;;7.69;100.00;98809.50;12179394;19;19907;-78
2023/12/31 04:10:22;;;;;;;;;;;;;;;7.59;100.00;98814.88;12202666;19;19919;-77
2023/12/31 04:14:24;;;;;;;;;;;;;;;7.51;100.00;98807.91;12198934;19;19931;-78
2023/12/31 04:18:26;;;;;;;;;;;;;;;7.43;100.00;98811.91;12176044;19;19913;-77
2023/12/31 04:22:27;;;;;;;;;;;;;;;7.39;100.00;98794.31;12196955;19;19977;-78
2023/12/31 04:26:30;;;;;;;;;;;;;;;7.37;100.00;98788.25;12198212;19;19953;-78
2023/12/31 04:30:33;;;;;;;;;;;;;;;7.30;100.00;98785.69;12177277;19;19918;-77
2023/12/31 04:34:35;;;;;;;;;;;;;;;7.23;100.00;98796.03;12195407;19;19918;-78
2023/12/31 04:38:40;;;;;;;;;;;;;;;7.17;100.00;98802.53;12194029;19;20327;-77
2023/12/31 04:42:42;;;;;;;;;;;;;;;7.13;100.00;98806.00;12177445;19;19907;-78
2023/12/31 04:46:44;;;;;;;;;;;;;;;7.17;100.00;98799.78;12195505;19;19911;-77
2023/12/31 04:50:46;;;;;;;;;;;;;;;7.18;100.00;98782.25;12194216;19;19919;-78
2023/12/31 04:54:52;;;;;;;;;;;;;;;7.20;100.00;98779.28;12176308;19;19918;-77
2023/12/31 04:58:56;;;;;;;;;;;;;;;7.27;100.00;98766.19;12192830;19;20314;-77
2023/12/31 05:02:58;;;;;;;;;;;;;;;7.35;100.00;98756.69;12173786;19;19919;-77
2023/12/31 05:07:02;;;;;;;;;;;;;;;7.43;100.00;98735.16;12192043;19;20258;-77
2023/12/31 05:11:05;;;;;;;;;;;;;;;7.45;100.00;98724.78;12193423;19;20003;-77
2023/12/31 05:15:13;;;;;;;;;;;;;;;7.38;100.00;98702.22;12173985;19;19932;-77
2023/12/31 05:19:15;;;;;;;;;;;;;;;7.26;100.00;98707.00;12189654;19;19914;-77
2023/12/31 05:23:17;;;;;;;;;;;;;;;7.20;100.00;98699.81;12193862;19;19986;-77
2023/12/31 05:27:20;;;;;;;;;;;;;;;7.14;100.00;98703.53;12170617;19;19939;-78
2023/12/31 05:31:22;;;;;;;;;;;;;;;7.01;100.00;98689.16;12192187;19;19924;-77
2023/12/31 05:35:24;;;;;;;;;;;;;;;6.96;100.00;98691.84;12191664;19;19970;-77
2023/12/31 05:39:32;;;;;;;;;;;;;;;6.95;100.00;98678.38;12169349;19;19931;-77
2023/12/31 05:43:34;;;;;;;;;;;;;;;6.97;100.00;98665.28;12192544;19;19948;-77
2023/12/31 05:47:37;;;;;;;;;;;;;;;7.02;100.00;98657.94;12192094;19;19918;-77
2023/12/31 05:51:48;;;;;;;;;;;;;;;7.10;100.00;98648.44;12168476;19;19994;-77
2023/12/31 05:55:50;;;;;;;;;;;;;;;7.14;100.00;98646.00;12190968;19;20021;-77
2023/12/31 05:59:52;;;;;;;;;;;;;;;7.19;100.00;98644.16;12170326;19;19919;-77
2023/12/31 06:03:56;;;;;;;;;;;;;;;7.24;100.00;98635.19;12194139;19;19914;-77
2023/12/31 06:07:58;;;;;;;;;;;;;;;7.14;100.00;98622.22;12186304;19;19914;-77
2023/12/31 06:11:59;;;;;;;;;;;;;;;7.14;100.00;98622.22;12170312;19;20259;-77
2023/12/31 06:16:03;;;;;;;;;;;;;;;7.18;100.00;98612.38;12193054;19;19928;-78
2023/12/31 06:20:06;;;;;;;;;;;;;;;7.22;100.00;98612.69;12201060;19;19919;-77
2023/12/31 06:24:08;;;;;;;;;;;;;;;7.27;100.00;98604.53;12182287;19;20004;-77
2023/12/31 06:28:11;;;;;;;;;;;;;;;7.23;100.00;98615.19;12198742;19;19936;-77
2023/12/31 06:32:14;;;;;;;;;;;;;;;7.16;100.00;98630.16;12200859;19;19915;-76
2023/12/31 06:36:16;;;;;;;;;;;;;;;7.12;100.00;98635.31;12180347;19;19939;-75
2023/12/31 06:40:18;;;;;;;;;;;;;;;7.13;100.00;98644.38;12198635;19;19931;-76
2023/12/31 06:44:20;;;;;;;;;;;;;;;7.21;100.00;98650.22;12197292;19;19915;-76
2023/12/31 06:48:22;;;;;;;;;;;;;;;7.30;100.00;98665.13;12176484;19;19911;-76
2023/12/31 06:52:23;;;;;;;;;;;;;;;7.37;100.00;98673.13;12196885;19;19911;-76
2023/12/31 06:56:25;;;;;;;;;;;;;;;7.39;100.00;98678.38;12199859;19;19915;-78
2023/12/31 07:00:28;;;;;;;;;;;;;;;7.37;100.00;98675.06;12177289;19;19910;-76
2023/12/31 07:04:30;;;;;;;;;;;;;;;7.35;100.00;98674.47;12200509;19;19991;-77
2023/12/31 07:08:32;;;;;;;;;;;;;;;7.39;100.00;98670.16;12196993;19;19935;-76
2023/12/31 07:12:34;;;;;;;;;;;;;;;7.38;100.00;98663.03;12177385;19;19906;-76
2023/12/31 07:16:37;;;;;;;;;;;;;;;7.38;100.00;98657.56;12199815;19;19915;-76
2023/12/31 07:20:39;;;;;;;;;;;;;;;7.35;100.00;98649.81;12197481;19;19906;-76
2023/12/31 07:24:42;;;;;;;;;;;;;;;7.31;100.00;98644.84;12175844;19;20627;-75
2023/12/31 07:28:44;;;;;;;;;;;;;;;7.29;100.00;98646.22;12197373;19;19919;-76
2023/12/31 07:32:46;;;;;;;;;;;;;;;7.22;100.00;98629.94;12200101;19;19906;-76
2023/12/31 07:36:48;;;;;;;;;;;;;;;7.17;100.00;98629.06;12175841;19;19942;-76
2023/12/31 07:40:49;;;;;;;;;;;;;;;7.11;100.00;98638.31;12197085;19;20272;-76
2023/12/31 07:44:53;;;;;;;;;;;;;;;7.08;100.00;98629.53;12200604;19;19979;-76
2023/12/31 07:48:56;;;;;;;;;;;;;;;7.06;100.00;98611.69;12174288;19;19918;-76
2023/12/31 07:52:59;;;;;;;;;;;;;;;7.08;100.00;98606.81;12195972;19;19914;-75
2023/12/31 07:57:01;;;;;;;;;;;;;;;7.19;100.00;98611.28;12173982;19;20234;-75
2023/12/31 08:01:04;;;;;;;;;;;;;;;7.37;100.00;98607.38;12199991;19;20302;-76
2023/12/31 08:05:08;;;;;;;;;;;;;;;7.56;100.00;98607.84;12196001;19;19939;-78
2023/12/31 08:09:11;;;;;;;;;;;;;;;7.73;100.00;98602.22;12173794;19;20426;-77
2023/12/31 08:13:13;;;;;;;;;;;;;;;7.84;100.00;98592.19;12195276;19;19922;-78
2023/12/31 08:17:15;;;;;;;;;;;;;;;7.98;100.00;98593.41;12196990;19;19915;-75
2023/12/31 08:21:18;;;;;;;;;;;;;;;8.15;100.00;98594.06;12174212;19;19915;-78
2023/12/31 08:25:21;;;;;;;;;;;;;;;8.30;100.00;98582.38;12198506;19;20182;-76
2023/12/31 08:29:29;;;;;;;;;;;;;;;8.41;100.00;98569.53;12194720;19;19931;-75
2023/12/31 08:33:31;;;;;;;;;;;;;;;8.51;100.00;98563.31;12171499;19;19910;-76
2023/12/31 08:37:33;;;;;;;;;;;;;;;8.57;100.00;98563.06;12194409;19;20350;-76
2023/12/31 08:41:35;;;;;;;;;;;;;;;8.70;100.00;98555.41;12194784;19;19918;-76
2023/12/31 08:45:39;;;;;;;;;;;;;;;8.91;100.00;98554.41;12172867;19;20502;-76
2023/12/31 08:49:41;;;;;;;;;;;;;;;9.06;100.00;98553.63;12192364;19;19918;-76
2023/12/31 08:53:43;;;;;;;;;;;;;;;9.29;100.00;98546.81;12192340;19;19974;-76
2023/12/31 08:57:49;;;;;;;;;;;;;;;9.56;99.47;98538.31;12169464;19;20337;-76
2023/12/31 09:01:51;;;;;;;;;;;;;;;9.94;97.73;98545.19;12192356;19;19915;-76
2023/12/31 09:05:53;;;;;;;;;;;;;;;10.12;92.53;98530.03;12191155;19;19907;-76
2023/12/31 09:09:55;;;;;;;;;;;;;;;10.34;92.61;98532.47;12170163;19;19917;-77
2023/12/31 09:13:57;;;;;;;;;;;;;;;10.44;87.30;98510.44;12195117;19;19994;-76
2023/12/31 09:17:59;;;;;;;;;;;;;;;10.65;88.64;98511.16;12194460;19;19915;-77
2023/12/31 09:22:02;;;;;;;;;;;;;;;10.79;87.35;98519.63;12160997;19;19918;-77
2023/12/31 09:26:04;;;;;;;;;;;;;;;10.85;84.80;98512.97;12168168;19;19918;-76
2023/12/31 09:30:06;;;;;;;;;;;;;;;10.92;86.02;98518.22;12192025;19;19950;-75
2023/12/31 09:34:09;;;;;;;;;;;;;;;10.84;83.07;98524.31;12169489;19;19903;-77
2023/12/31 09:38:15;;;;;;;;;;;;;;;10.82;83.38;98540.28;12194640;19;19907;-78
2023/12/31 09:42:20;;;;;;;;;;;;;;;10.79;84.83;98540.84;12195022;19;19915;-77
2023/12/31 09:46:22;;;;;;;;;;;;;;;10.60;87.34;98513.13;12178885;19;19907;-77
2023/12/31 09:50:24;;;;;;;;;;;;;;;10.45;90.29;98514.81;12198299;19;20335;-77
2023/12/31 09:54:32;;;;;;;;;;;;;;;10.41;91.92;98497.22;12183215;19;19927;-77
2023/12/31 09:58:35;;;;;;;;;;;;;;;10.47;91.83;98501.59;12217212;19;20480;-76
2023/12/31 10:02:37;;;;;;;;;;;;;;;10.46;91.13;98521.97;12258564;19;19954;-76
2023/12/31 10:06:42;;;;;;;;;;;;;;;10.53;90.71;98510.66;12235008;19;19940;-76
2023/12/31 10:10:45;;;;;;;;;;;;;;;10.51;90.89;98501.03;12239402;19;20366;-78
2023/12/31 10:14:48;;;;;;;;;;;;;;;10.27;91.04;98488.72;12204354;19;19928;-78
2023/12/31 10:18:50;;;;;;;;;;;;;;;10.26;91.37;98486.19;12178027;19;19907;-78
2023/12/31 10:22:53;;;;;;;;;;;;;;;10.20;90.80;98481.81;12195507;19;19918;-77
2023/12/31 10:26:57;;;;;;;;;;;;;;;10.29;91.40;98476.59;12191783;19;19911;-76
2023/12/31 10:30:58;;;;;;;;;;;;;;;10.33;90.25;98480.44;12197532;19;19918;-77
2023/12/31 10:35:04;;;;;;;;;;;;;;;10.28;89.00;98464.75;12173011;19;19914;-77
2023/12/31 10:39:08;;;;;;;;;;;;;;;10.27;89.17;98460.38;12165072;19;19915;-77
2023/12/31 10:43:12;;;;;;;;;;;;;;;10.25;88.58;98468.84;12198361;19;20663;-77
2023/12/31 10:47:18;;;;;;;;;;;;;;;10.24;89.00;98467.22;12172156;19;19915;-76
2023/12/31 10:51:24;;;;;;;;;;;;;;;10.22;89.22;98468.59;12187979;19;19911;-76
2023/12/31 10:55:26;;;;;;;;;;;;;;;10.15;89.04;98465.34;12191047;19;19927;-77
2023/12/31 10:59:29;;;;;;;;;;;;;;;10.11;91.57;98451.28;12169070;19;19942;-77
2023/12/31 11:03:33;;;;;;;;;;;;;;;9.94;94.38;98459.88;12200978;19;20003;-77
2023/12/31 11:07:36;;;;;;;;;;;;;;;9.98;96.20;98460.13;12209768;19;20576;-76
2023/12/31 11:11:38;;;;;;;;;;;;;;;9.96;98.18;98446.66;12187293;19;19914;-77
2023/12/31 11:15:40;;;;;;;;;;;;;;;10.05;98.73;98441.41;12213945;19;19923;-76
2023/12/31 11:19:43;;;;;;;;;;;;;;;10.07;99.84;98441.94;12202531;19;19914;-79
2023/12/31 11:24:03;;;;;;;;;;;;;;;10.01;100.00;98445.81;12181641;19;19996;-77
2023/12/31 11:28:05;;;;;;;;;;;;;;;10.06;100.00;98456.00;12202307;19;19982;-76
2023/12/31 11:32:08;;;;;;;;;;;;;;;10.05;100.00;98463.41;12198024;19;19935;-76
2023/12/31 11:36:11;;;;;;;;;;;;;;;10.02;100.00;98474.97;12176862;19;19936;-76
2023/12/31 11:40:14;;;;;;;;;;;;;;;9.97;100.00;98475.00;12195858;19;19906;-76
2023/12/31 11:44:36;;;;;;;;;;;;;;;9.94;100.00;98472.81;12178663;19;19919;-76
2023/12/31 11:48:46;;;;;;;;;;;;;;;10.09;100.00;98466.44;12194461;19;19907;-75
2023/12/31 11:52:48;;;;;;;;;;;;;;;10.14;100.00;98466.41;12195238;19;19911;-76
2023/12/31 11:56:52;;;;;;;;;;;;;;;10.10;100.00;98468.09;12176502;19;19935;-76
2023/12/31 12:00:54;;;;;;;;;;;;;;;10.12;100.00;98474.16;12198432;19;19915;-76
2023/12/31 12:04:59;;;;;;;;;;;;;;;10.14;100.00;98478.28;12199003;19;19978;-75
2023/12/31 12:09:01;;;;;;;;;;;;;;;10.11;100.00;98478.81;12175788;19;20345;-78
2023/12/31 12:13:04;;;;;;;;;;;;;;;10.19;100.00;98482.94;12197817;19;19918;-75
2023/12/31 12:17:08;;;;;;;;;;;;;;;10.32;100.00;98478.78;12190996;19;20670;-78
2023/12/31 12:21:10;;;;;;;;;;;;;;;10.41;100.00;98477.94;12181601;19;19974;-77
2023/12/31 12:25:12;;;;;;;;;;;;;;;10.40;100.00;98472.69;12202033;19;19915;-77
2023/12/31 12:29:18;;;;;;;;;;;;;;;10.41;100.00;98477.09;12179305;19;20276;-77
2023/12/31 12:33:20;;;;;;;;;;;;;;;10.39;100.00;98485.66;12195265;19;20013;-76
2023/12/31 12:37:23;;;;;;;;;;;;;;;10.45;100.00;98495.53;12198515;19;19915;-78
2023/12/31 12:41:25;;;;;;;;;;;;;;;10.53;100.00;98485.88;12177265;19;20306;-78
2023/12/31 12:45:28;;;;;;;;;;;;;;;10.60;100.00;98485.56;12215216;19;19914;-79
2023/12/31 12:49:33;;;;;;;;;;;;;;;10.65;100.00;98497.41;12207779;19;19918;-78
2023/12/31 12:53:35;;;;;;;;;;;;;;;10.56;100.00;98485.31;12189096;19;19946;-77
2023/12/31 12:57:37;;;;;;;;;;;;;;;10.50;100.00;98491.94;12209226;19;19999;-78
2023/12/31 13:01:40;;;;;;;;;;;;;;;10.51;100.00;98506.53;12210098;19;19966;-79
2023/12/31 13:05:41;;;;;;;;;;;;;;;10.42;100.00;98503.53;12199757;19;19903;-77
2023/12/31 13:09:44;;;;;;;;;;;;;;;10.24;100.00;98525.03;12222056;19;19915;-78
2023/12/31 13:13:46;;;;;;;;;;;;;;;10.14;100.00;98514.06;12218933;19;20919;-77
2023/12/31 13:17:52;;;;;;;;;;;;;;;10.06;100.00;98513.81;12195801;19;19911;-78
2023/12/31 13:22:00;;;;;;;;;;;;;;;10.17;100.00;98512.66;12207068;19;19931;-80
2023/12/31 13:26:02;;;;;;;;;;;;;;;10.21;100.00;98522.84;12195738;19;19927;-78
2023/12/31 13:30:11;;;;;;;;;;;;;;;10.23;100.00;98528.06;12173595;19;19919;-78
2023/12/31 13:34:13;;;;;;;;;;;;;;;10.25;100.00;98536.88;12193821;19;20628;-77
2023/12/31 13:38:19;;;;;;;;;;;;;;;10.22;100.00;98535.50;12170616;19;19922;-77
2023/12/31 13:42:30;;;;;;;;;;;;;;;10.10;100.00;98534.16;12197302;19;20356;-78
2023/12/31 13:46:32;;;;;;;;;;;;;;;10.01;100.00;98534.69;12202436;19;19919;-78
2023/12/31 13:50:34;;;;;;;;;;;;;;;9.92;100.00;98544.63;12180093;19;19935;-78
2023/12/31 13:54:35;;;;;;;;;;;;;;;9.93;100.00;98551.75;12196879;19;20354;-78
2023/12/31 13:58:37;;;;;;;;;;;;;;;9.85;100.00;98541.34;12193568;19;19911;-78
2023/12/31 14:02:40;;;;;;;;;;;;;;;9.80;100.00;98533.09;12174759;19;19927;-78
2023/12/31 14:06:59;;;;;;;;;;;;;;;9.74;100.00;98515.75;12192229;19;20291;-77
2023/12/31 14:11:04;;;;;;;;;;;;;;;9.74;100.00;98518.50;12193066;19;19991;-76
2023/12/31 14:15:07;;;;;;;;;;;;;;;9.71;100.00;98512.72;12168800;19;19903;-77
2023/12/31 14:19:12;;;;;;;;;;;;;;;9.70;100.00;98522.09;12202825;19;19946;-78
2023/12/31 14:23:36;;;;;;;;;;;;;;;9.62;100.00;98523.47;12179021;19;20316;-78
2023/12/31 14:27:38;;;;;;;;;;;;;;;9.61;100.00;98519.06;12201980;19;20347;-78
2023/12/31 14:31:41;;;;;;;;;;;;;;;9.59;100.00;98537.75;12199677;19;19914;-78
2023/12/31 14:35:44;;;;;;;;;;;;;;;9.50;100.00;98526.47;12176730;19;19915;-78
2023/12/31 14:39:47;;;;;;;;;;;;;;;9.46;100.00;98519.03;12204580;19;19918;-79
2023/12/31 14:43:53;;;;;;;;;;;;;;;9.42;100.00;98531.69;12214763;19;20360;-79
2023/12/31 14:47:55;;;;;;;;;;;;;;;9.31;100.00;98534.44;12190223;19;20745;-78
2023/12/31 14:51:57;;;;;;;;;;;;;;;9.27;100.00;98538.00;12201896;19;20271;-78
2023/12/31 14:56:00;;;;;;;;;;;;;;;9.25;100.00;98551.19;12211865;19;20003;-77
2023/12/31 15:00:04;;;;;;;;;;;;;;;9.14;100.00;98569.59;12186346;19;20293;-78
2023/12/31 15:04:06;;;;;;;;;;;;;;;9.09;100.00;98572.31;12210986;19;19915;-77
2023/12/31 15:08:08;;;;;;;;;;;;;;;9.02;100.00;98589.06;12209800;19;19927;-78
2023/12/31 15:12:10;;;;;;;;;;;;;;;8.98;100.00;98562.38;12203501;19;19903;-81
2023/12/31 15:16:14;;;;;;;;;;;;;;;8.92;100.00;98561.53;12242759;19;19914;-79
2023/12/31 15:20:17;;;;;;;;;;;;;;;8.82;100.00;98562.34;12218251;19;20338;-78
2023/12/31 15:24:19;;;;;;;;;;;;;;;8.81;100.00;98555.19;12242941;19;19970;-79
2023/12/31 15:28:21;;;;;;;;;;;;;;;8.74;100.00;98562.00;12209539;19;20243;-79
2023/12/31 15:32:24;;;;;;;;;;;;;;;8.73;100.00;98568.63;12179451;19;20288;-79
2023/12/31 15:36:25;;;;;;;;;;;;;;;8.69;100.00;98586.72;12205774;19;19910;-80
2023/12/31 15:40:28;;;;;;;;;;;;;;;8.66;100.00;98566.94;12202765;19;19919;-79
2023/12/31 15:44:30;;;;;;;;;;;;;;;8.68;100.00;98602.34;12188211;19;19950;-81
2023/12/31 15:48:36;;;;;;;;;;;;;;;8.66;100.00;98613.63;12201075;19;19935;-81
2023/12/31 15:52:38;;;;;;;;;;;;;;;8.66;100.00;98634.78;12206762;19;19914;-82
2023/12/31 15:56:41;;;;;;;;;;;;;;;8.69;100.00;98644.41;12184879;19;19935;-82
2023/12/31 16:00:43;;;;;;;;;;;;;;;8.66;100.00;98640.28;12207924;19;19978;-82
2023/12/31 16:04:46;;;;;;;;;;;;;;;8.62;100.00;98641.88;12212512;19;19919;-82
2023/12/31 16:08:49;;;;;;;;;;;;;;;8.54;100.00;98631.41;12189406;19;19997;-81
2023/12/31 16:12:51;;;;;;;;;;;;;;;8.51;100.00;98619.03;12204056;19;19914;-82
2023/12/31 16:16:52;;;;;;;;;;;;;;;8.49;100.00;98610.22;12204836;19;20347;-82
2023/12/31 16:20:54;;;;;;;;;;;;;;;8.49;100.00;98610.22;12189511;19;19915;-82
2023/12/31 16:24:57;;;;;;;;;;;;;;;8.44;100.00;98607.44;12213367;19;19914;-82
2023/12/31 16:28:58;;;;;;;;;;;;;;;8.40;100.00;98617.31;12208035;19;20271;-83
2023/12/31 16:33:04;;;;;;;;;;;;;;;8.35;100.00;98609.00;12186456;19;19935;-81
2023/12/31 16:37:06;;;;;;;;;;;;;;;8.40;100.00;98601.66;12203009;19;19930;-82
2023/12/31 16:41:08;;;;;;;;;;;;;;;8.31;100.00;98602.41;12206818;19;19934;-85
2023/12/31 16:45:10;;;;;;;;;;;;;;;8.28;100.00;98609.25;12212640;19;19910;-83
2023/12/31 16:49:12;;;;;;;;;;;;;;;8.25;100.00;98628.16;12214181;19;19930;-85
2023/12/31 16:53:15;;;;;;;;;;;;;;;8.15;100.00;98651.69;12209936;19;19939;-83
2023/12/31 16:57:16;;;;;;;;;;;;;;;8.20;100.00;98668.19;12191222;19;19966;-84
2023/12/31 17:01:18;;;;;;;;;;;;;;;8.15;100.00;98648.94;12222907;19;20307;-82
2023/12/31 17:05:22;;;;;;;;;;;;;;;8.16;100.00;98644.28;12201139;19;20264;-83
2023/12/31 17:09:24;;;;;;;;;;;;;;;8.04;100.00;98636.25;12215893;19;19954;-84
2023/12/31 17:13:26;;;;;;;;;;;;;;;8.06;100.00;98635.97;12213634;19;19915;-84
2023/12/31 17:17:31;;;;;;;;;;;;;;;8.00;100.00;98651.53;12190326;19;19918;-82
2023/12/31 17:21:35;;;;;;;;;;;;;;;7.94;100.00;98656.19;12213990;19;19927;-83
2023/12/31 17:25:36;;;;;;;;;;;;;;;7.96;100.00;98653.16;12217186;19;19978;-87
2023/12/31 17:29:39;;;;;;;;;;;;;;;7.93;100.00;98651.78;12194531;19;19918;-84
2023/12/31 17:33:41;;;;;;;;;;;;;;;7.87;100.00;98643.75;12220223;19;19911;-85
2023/12/31 17:37:45;;;;;;;;;;;;;;;7.78;100.00;98653.56;12248968;19;19911;-84
2023/12/31 17:41:47;;;;;;;;;;;;;;;7.73;100.00;98649.69;12249725;19;19907;-82
2023/12/31 17:45:49;;;;;;;;;;;;;;;7.72;100.00;98637.06;12264082;19;19909;-80
2023/12/31 17:49:51;;;;;;;;;;;;;;;7.66;100.00;98654.53;12262826;19;19940;-81
2023/12/31 17:53:53;;;;;;;;;;;;;;;7.63;100.00;98668.75;12180817;19;19932;-82
2023/12/31 17:57:54;;;;;;;;;;;;;;;7.62;100.00;98661.63;12197486;19;19918;-83
2023/12/31 18:01:57;;;;;;;;;;;;;;;7.59;100.00;98664.91;12185485;19;19914;-82
2023/12/31 18:05:59;;;;;;;;;;;;;;;7.51;100.00;98665.34;12211237;19;19911;-82
2023/12/31 18:10:03;;;;;;;;;;;;;;;7.49;100.00;98668.34;12206525;19;19914;-82
2023/12/31 18:14:09;;;;;;;;;;;;;;;7.43;100.00;98674.03;12203994;19;19938;-83
2023/12/31 18:18:11;;;;;;;;;;;;;;;7.42;100.00;98686.09;12233962;19;19910;-80
2023/12/31 18:22:13;;;;;;;;;;;;;;;7.34;100.00;98692.84;12230332;19;20274;-82
2023/12/31 18:26:14;;;;;;;;;;;;;;;7.35;100.00;98710.09;12208839;19;19908;-81
2023/12/31 18:30:16;;;;;;;;;;;;;;;7.36;100.00;98701.63;12225539;19;20284;-82
2023/12/31 18:34:27;;;;;;;;;;;;;;;7.37;100.00;98721.66;12228812;19;19998;-82
2023/12/31 18:38:29;;;;;;;;;;;;;;;7.42;100.00;98724.47;12201486;19;19915;-81
2023/12/31 18:42:30;;;;;;;;;;;;;;;7.50;100.00;98740.47;12225007;19;20258;-82
2023/12/31 18:46:37;;;;;;;;;;;;;;;7.60;100.00;98731.50;12227599;19;19903;-81
2023/12/31 18:50:39;;;;;;;;;;;;;;;7.55;100.00;98743.25;12205107;19;19968;-83
2023/12/31 18:54:44;;;;;;;;;;;;;;;7.69;100.00;98733.53;12217694;19;19915;-82
2023/12/31 18:58:46;;;;;;;;;;;;;;;7.64;100.00;98749.09;12224077;19;19919;-81
2023/12/31 19:02:48;;;;;;;;;;;;;;;7.56;100.00;98749.56;12203553;19;19910;-83
2023/12/31 19:06:49;;;;;;;;;;;;;;;7.58;100.00;98741.91;12223863;19;19935;-83
2023/12/31 19:10:52;;;;;;;;;;;;;;;7.58;100.00;98770.13;12229297;19;19951;-83
2023/12/31 19:14:58;;;;;;;;;;;;;;;7.52;100.00;98771.16;12203232;19;19915;-81
2023/12/31 19:19:01;;;;;;;;;;;;;;;7.46;100.00;98777.66;12224125;19;19940;-82
2023/12/31 19:23:03;;;;;;;;;;;;;;;7.44;100.00;98768.91;12201572;19;19918;-81
2023/12/31 19:27:04;;;;;;;;;;;;;;;7.38;100.00;98776.22;12218980;19;19915;-82
2023/12/31 19:31:06;;;;;;;;;;;;;;;7.39;100.00;98758.69;12215791;19;19954;-83
2023/12/31 19:35:09;;;;;;;;;;;;;;;7.24;100.00;98756.56;12194673;19;19911;-81
2023/12/31 19:39:11;;;;;;;;;;;;;;;7.06;100.00;98751.41;12202730;19;19911;-81
2023/12/31 19:43:14;;;;;;;;;;;;;;;6.94;100.00;98764.38;12212203;19;19914;-83
2023/12/31 19:47:30;;;;;;;;;;;;;;;6.96;100.00;98767.66;12192180;19;19911;-83
2023/12/31 19:51:32;;;;;;;;;;;;;;;6.95;100.00;98772.31;12216767;19;19989;-83
2023/12/31 19:55:38;;;;;;;;;;;;;;;7.04;100.00;98764.50;12221018;19;19988;-83
2023/12/31 19:59:40;;;;;;;;;;;;;;;7.04;100.00;98765.34;12188701;19;19911;-80
2023/12/31 20:03:44;;;;;;;;;;;;;;;7.06;100.00;98765.09;12217608;19;19911;-83
2023/12/31 20:07:46;;;;;;;;;;;;;;;7.25;100.00;98754.66;12212386;19;19946;-83
2023/12/31 20:11:48;;;;;;;;;;;;;;;7.39;100.00;98763.34;12194348;19;19960;-82
2023/12/31 20:15:50;;;;;;;;;;;;;;;7.41;100.00;98759.25;12202863;19;19919;-83
2023/12/31 20:19:54;;;;;;;;;;;;;;;7.47;100.00;98751.94;12203513;19;19932;-81
2023/12/31 20:24:01;;;;;;;;;;;;;;;7.34;100.00;98757.78;12185404;19;19939;-81
2023/12/31 20:28:04;;;;;;;;;;;;;;;7.19;100.00;98751.00;12201853;19;19915;-82
2023/12/31 20:32:07;;;;;;;;;;;;;;;7.14;100.00;98742.75;12184770;19;19914;-81
2023/12/31 20:36:11;;;;;;;;;;;;;;;7.15;100.00;98749.88;12200671;19;20019;-81
2023/12/31 20:40:13;;;;;;;;;;;;;;;7.16;100.00;98759.75;12202051;19;19935;-81
2023/12/31 20:44:15;;;;;;;;;;;;;;;7.18;100.00;98752.09;12177493;19;19938;-82
2023/12/31 20:48:17;;;;;;;;;;;;;;;7.24;100.00;98756.56;12200621;19;19922;-82